Time;durP1;ratioP1;P1;durP2;ratioP2;P2;SDS_P1;SDS_P2;PMS_P1;PMS_P2;Temp;Humidity;BMP_temperature;BMP_pressure;BME280_temperature;BME280_humidity;BME280_pressure;Samples;Min_cycle;Max_cycle;Signal;HPM_P1;HPM_P2
2021/11/20 00:01:01;;;;;;;17.52;9.00;;;;;;;5.04;97.96;95562.41;5104430;28;20039;-69
2021/11/20 00:03:28;;;;;;;18.75;8.60;;;;;;;4.99;98.60;95552.66;5109435;27;20027;-69
2021/11/20 00:05:55;;;;;;;18.95;9.23;;;;;;;5.07;97.99;95555.13;5103415;27;20100;-68
2021/11/20 00:08:23;;;;;;;18.67;9.32;;;;;;;4.93;98.21;95537.84;5102768;28;20413;-69
2021/11/20 00:10:55;;;;;;;19.08;9.38;;;;;;;4.92;98.59;95546.59;5103990;27;20050;-69
2021/11/20 00:13:23;;;;;;;18.55;9.32;;;;;;;4.90;98.80;95544.19;5103760;27;20048;-68
2021/11/20 00:15:54;;;;;;;15.75;8.63;;;;;;;4.83;99.12;95538.13;5105467;27;20096;-69
2021/11/20 00:18:22;;;;;;;20.88;9.52;;;;;;;4.82;99.57;95541.69;5102215;28;20887;-69
2021/11/20 00:20:55;;;;;;;13.70;7.38;;;;;;;4.89;100.00;95541.78;5102670;28;20126;-69
2021/11/20 00:23:32;;;;;;;21.20;9.20;;;;;;;4.90;99.87;95539.03;5105066;27;20067;-66
2021/11/20 00:26:00;;;;;;;24.98;9.10;;;;;;;4.85;100.00;95527.63;5108693;27;20520;-67
2021/11/20 00:28:54;;;;;;;20.13;9.18;;;;;;;4.95;100.00;95546.22;5101771;27;20056;-67
2021/11/20 00:31:21;;;;;;;27.45;10.43;;;;;;;4.98;100.00;95551.03;5078935;28;20142;-66
2021/11/20 00:33:48;;;;;;;15.05;8.02;;;;;;;4.97;100.00;95550.25;5086935;28;20043;-66
2021/11/20 00:36:15;;;;;;;14.05;7.82;;;;;;;5.02;100.00;95554.06;5101906;28;20044;-66
2021/11/20 00:38:44;;;;;;;19.50;9.95;;;;;;;4.98;100.00;95549.25;5093390;27;20100;-67
2021/11/20 00:41:15;;;;;;;18.10;10.05;;;;;;;4.99;100.00;95539.75;5084327;28;20046;-67
2021/11/20 00:43:43;;;;;;;22.35;8.68;;;;;;;5.03;100.00;95551.31;5102722;28;20038;-68
2021/11/20 00:46:13;;;;;;;18.95;8.15;;;;;;;5.10;100.00;95544.44;5103679;28;20782;-67
2021/11/20 00:48:41;;;;;;;22.30;11.05;;;;;;;5.09;100.00;95542.84;5102960;28;20040;-67
2021/11/20 00:51:10;;;;;;;15.65;9.43;;;;;;;5.20;100.00;95538.19;5093078;28;20039;-67
2021/11/20 00:53:40;;;;;;;16.35;9.00;;;;;;;5.09;100.00;95531.72;5104016;28;20118;-67
2021/11/20 00:56:10;;;;;;;20.80;10.38;;;;;;;5.20;100.00;95533.03;5106234;27;20101;-68
2021/11/20 00:58:37;;;;;;;16.77;9.25;;;;;;;5.24;100.00;95539.44;5104311;27;20036;-68
2021/11/20 01:01:10;;;;;;;18.38;8.75;;;;;;;5.27;100.00;95539.88;5090627;27;20126;-67
2021/11/20 01:03:38;;;;;;;21.02;10.82;;;;;;;5.28;100.00;95540.69;5088676;28;20040;-68
2021/11/20 01:06:06;;;;;;;19.73;9.98;;;;;;;5.26;100.00;95540.09;5085235;27;20051;-68
2021/11/20 01:08:37;;;;;;;22.77;11.13;;;;;;;5.25;100.00;95536.69;5103481;28;20059;-67
2021/11/20 01:11:10;;;;;;;17.25;9.48;;;;;;;5.23;100.00;95535.28;5088880;28;20047;-68
2021/11/20 01:13:37;;;;;;;18.45;9.25;;;;;;;5.22;100.00;95520.75;5108553;27;20039;-68
2021/11/20 01:16:08;;;;;;;19.77;9.52;;;;;;;5.23;100.00;95530.09;5084100;28;20127;-67
2021/11/20 01:18:35;;;;;;;19.00;8.23;;;;;;;5.26;100.00;95527.16;5108780;27;20142;-67
2021/11/20 01:21:12;;;;;;;17.80;9.60;;;;;;;5.21;100.00;95508.81;5087822;28;20057;-68
2021/11/20 01:23:41;;;;;;;17.15;9.48;;;;;;;5.32;100.00;95526.44;5091968;28;20044;-68
2021/11/20 01:26:13;;;;;;;24.08;10.10;;;;;;;5.30;100.00;95523.25;5093721;27;20047;-68
2021/11/20 01:28:49;;;;;;;16.55;8.95;;;;;;;5.32;100.00;95518.69;5088864;28;20420;-68
2021/11/20 01:31:25;;;;;;;18.67;9.35;;;;;;;5.34;100.00;95514.13;5084300;28;20116;-68
2021/11/20 01:33:53;;;;;;;16.40;9.18;;;;;;;5.36;100.00;95512.16;5084598;28;20042;-67
2021/11/20 01:36:24;;;;;;;19.88;9.80;;;;;;;5.32;100.00;95506.56;5085440;28;20059;-68
2021/11/20 01:38:53;;;;;;;20.73;9.65;;;;;;;5.35;100.00;95523.50;5088890;28;20036;-69
2021/11/20 01:41:31;;;;;;;20.00;10.63;;;;;;;5.41;100.00;95520.19;5086902;28;20044;-68
2021/11/20 01:44:21;;;;;;;21.63;10.73;;;;;;;5.46;100.00;95525.59;5102472;28;20567;-67
2021/11/20 01:46:56;;;;;;;15.30;9.02;;;;;;;5.36;100.00;95514.75;5085789;28;20528;-68
2021/11/20 01:49:29;;;;;;;25.45;10.57;;;;;;;5.40;100.00;95513.41;5094300;28;20405;-68
2021/11/20 01:52:16;;;;;;;14.68;8.55;;;;;;;5.40;100.00;95521.16;5091523;28;20074;-67
2021/11/20 01:55:14;;;;;;;18.10;9.38;;;;;;;5.48;100.00;95523.63;5085147;28;20420;-68
2021/11/20 01:58:12;;;;;;;19.48;10.60;;;;;;;5.53;100.00;95529.06;5129216;27;20043;-68
2021/11/20 02:01:10;;;;;;;23.35;10.32;;;;;;;5.55;100.00;95527.09;5089685;28;20071;-68
2021/11/20 02:03:55;;;;;;;22.15;10.15;;;;;;;5.62;100.00;95516.03;5084844;28;20055;-68
2021/11/20 02:06:58;;;;;;;20.58;9.85;;;;;;;5.59;100.00;95511.25;5107238;28;20039;-68
2021/11/20 02:09:53;;;;;;;19.83;9.63;;;;;;;5.52;100.00;95511.94;5086394;28;20039;-68
2021/11/20 02:12:29;;;;;;;23.52;9.82;;;;;;;5.44;100.00;95488.81;5080816;28;20067;-68
2021/11/20 02:15:06;;;;;;;19.55;9.18;;;;;;;5.53;100.00;95492.09;5093001;28;20047;-68
2021/11/20 02:17:43;;;;;;;17.13;8.38;;;;;;;5.59;100.00;95495.72;5082924;28;20047;-68
2021/11/20 02:20:27;;;;;;;20.95;10.35;;;;;;;5.54;100.00;95489.31;5087818;28;20440;-68
2021/11/20 02:22:56;;;;;;;22.35;10.70;;;;;;;5.61;100.00;95491.19;5092858;28;20052;-68
2021/11/20 02:25:23;;;;;;;19.30;10.68;;;;;;;5.62;100.00;95505.69;5095143;28;20055;-68
2021/11/20 02:28:15;;;;;;;20.42;10.20;;;;;;;5.63;100.00;95497.75;5105501;28;20444;-68
2021/11/20 02:30:47;;;;;;;19.50;10.73;;;;;;;5.54;100.00;95484.16;5085403;28;20440;-68
2021/11/20 02:33:16;;;;;;;18.48;9.88;;;;;;;5.62;100.00;95495.34;5085791;28;20078;-68
2021/11/20 02:35:57;;;;;;;20.85;10.25;;;;;;;5.64;100.00;95480.47;5087606;28;20497;-68
2021/11/20 02:38:32;;;;;;;15.48;7.93;;;;;;;5.67;100.00;95482.69;5085598;28;20127;-68
2021/11/20 02:41:01;;;;;;;16.90;10.10;;;;;;;5.68;100.00;95476.53;5101932;28;20039;-68
2021/11/20 02:43:37;;;;;;;17.73;9.50;;;;;;;5.61;100.00;95479.06;5089693;28;20066;-67
2021/11/20 02:46:11;;;;;;;19.23;10.00;;;;;;;5.67;100.00;95477.50;5088860;28;20505;-67
2021/11/20 02:48:40;;;;;;;18.42;9.35;;;;;;;5.69;100.00;95481.53;5088038;28;20116;-68
2021/11/20 02:51:11;;;;;;;20.52;11.07;;;;;;;5.73;100.00;95481.97;5085177;28;20043;-68
2021/11/20 02:53:48;;;;;;;17.75;10.52;;;;;;;5.78;100.00;95479.63;5090984;28;20102;-68
2021/11/20 02:56:19;;;;;;;12.45;8.30;;;;;;;5.73;100.00;95481.97;5097617;28;20065;-67
2021/11/20 02:58:46;;;;;;;17.45;9.93;;;;;;;5.79;100.00;95476.03;5091593;28;20039;-68
2021/11/20 03:01:15;;;;;;;23.20;9.65;;;;;;;5.83;100.00;95482.44;5084966;28;20082;-68
2021/11/20 03:03:43;;;;;;;18.65;8.98;;;;;;;5.78;100.00;95474.47;5086587;28;20046;-68
2021/11/20 03:06:10;;;;;;;17.33;9.32;;;;;;;5.74;100.00;95473.22;5087110;28;20573;-67
2021/11/20 03:08:38;;;;;;;15.15;9.27;;;;;;;5.77;100.00;95472.06;5089792;28;20048;-68
2021/11/20 03:11:13;;;;;;;20.15;11.05;;;;;;;5.78;100.00;95474.47;5098207;28;20044;-68
2021/11/20 03:13:47;;;;;;;22.40;10.20;;;;;;;5.80;100.00;95480.25;5093965;28;20044;-68
2021/11/20 03:16:25;;;;;;;15.10;9.35;;;;;;;5.81;100.00;95458.56;5089421;27;20057;-68
2021/11/20 03:18:53;;;;;;;15.27;8.05;;;;;;;5.81;100.00;95474.06;5099435;27;20130;-68
2021/11/20 03:21:21;;;;;;;15.30;8.65;;;;;;;5.89;100.00;95471.38;5090186;28;20547;-68
2021/11/20 03:23:52;;;;;;;18.67;9.85;;;;;;;5.93;100.00;95482.94;5088125;28;20044;-68
2021/11/20 03:26:19;;;;;;;18.08;8.60;;;;;;;5.87;100.00;95468.19;5086918;28;20046;-67
2021/11/20 03:28:46;;;;;;;17.02;9.75;;;;;;;5.91;100.00;95479.75;5090395;28;20067;-67
2021/11/20 03:31:15;;;;;;;18.50;8.85;;;;;;;5.88;100.00;95469.75;5086785;28;20035;-68
2021/11/20 03:33:42;;;;;;;16.95;8.80;;;;;;;5.91;100.00;95477.16;5094910;27;20397;-67
2021/11/20 03:36:09;;;;;;;15.20;8.55;;;;;;;5.91;100.00;95479.75;5087142;28;20481;-68
2021/11/20 03:38:36;;;;;;;15.98;9.70;;;;;;;5.96;100.00;95474.06;5104771;27;20497;-68
2021/11/20 03:41:07;;;;;;;18.10;10.23;;;;;;;6.02;100.00;95475.88;5089118;28;20039;-68
2021/11/20 03:43:35;;;;;;;12.48;7.60;;;;;;;5.92;100.00;95481.34;5069098;28;20040;-68
2021/11/20 03:46:02;;;;;;;17.63;9.98;;;;;;;5.96;100.00;95470.66;5105459;27;20448;-68
2021/11/20 03:48:30;;;;;;;15.90;9.38;;;;;;;5.93;100.00;95457.06;5095772;27;20042;-68
2021/11/20 03:51:00;;;;;;;18.65;9.57;;;;;;;6.02;100.00;95475.09;5086686;28;20131;-68
2021/11/20 03:53:27;;;;;;;17.77;8.50;;;;;;;5.93;100.00;95472.59;5103801;28;20532;-67
2021/11/20 03:55:56;;;;;;;20.15;7.63;;;;;;;5.98;100.00;95489.34;5089760;28;20040;-67
2021/11/20 03:58:23;;;;;;;16.60;7.95;;;;;;;6.00;100.00;95477.06;5095331;27;20112;-67
2021/11/20 04:01:08;;;;;;;21.67;8.00;;;;;;;6.04;100.00;95489.41;5089100;28;20144;-68
2021/11/20 04:03:39;;;;;;;14.10;8.57;;;;;;;6.03;100.00;95492.19;5097969;28;20093;-68
2021/11/20 04:06:12;;;;;;;12.25;7.13;;;;;;;6.11;100.00;95490.28;5104916;27;20443;-68
2021/11/20 04:08:45;;;;;;;13.20;7.10;;;;;;;6.11;100.00;95494.66;5091029;27;20063;-67
2021/11/20 04:11:20;;;;;;;17.02;7.90;;;;;;;6.13;100.00;95508.19;5094526;27;20046;-68
2021/11/20 04:13:49;;;;;;;15.38;7.97;;;;;;;6.15;100.00;95508.81;5091161;27;20039;-68
2021/11/20 04:16:18;;;;;;;13.65;7.30;;;;;;;6.15;100.00;95506.22;5104541;28;20036;-67
2021/11/20 04:18:51;;;;;;;18.58;7.97;;;;;;;6.19;100.00;95507.44;5089918;27;20462;-67
2021/11/20 04:21:21;;;;;;;15.23;7.63;;;;;;;6.22;100.00;95503.69;5084301;27;20430;-67
2021/11/20 04:23:49;;;;;;;12.82;7.63;;;;;;;6.13;100.00;95497.84;5089732;27;20043;-68
2021/11/20 04:26:26;;;;;;;16.13;8.18;;;;;;;6.11;100.00;95505.78;5071106;27;20047;-67
2021/11/20 04:28:54;;;;;;;15.68;7.53;;;;;;;6.15;100.00;95511.41;5082574;27;20047;-68
2021/11/20 04:31:29;;;;;;;24.60;9.13;;;;;;;6.19;100.00;95502.28;5088738;28;20056;-68
2021/11/20 04:33:57;;;;;;;16.73;9.30;;;;;;;6.21;100.00;95495.16;5092422;28;20040;-68
2021/11/20 04:36:24;;;;;;;19.02;9.50;;;;;;;6.33;100.00;95490.25;5086288;27;20074;-67
2021/11/20 04:38:52;;;;;;;17.52;9.38;;;;;;;6.16;100.00;95476.81;5090248;28;20058;-67
2021/11/20 04:41:20;;;;;;;14.18;8.95;;;;;;;6.27;100.00;95489.22;5083991;28;20428;-67
2021/11/20 04:43:51;;;;;;;16.95;8.32;;;;;;;6.32;100.00;95492.03;5086133;28;20055;-68
2021/11/20 04:46:21;;;;;;;14.25;8.20;;;;;;;6.17;100.00;95456.91;5090786;27;20167;-67
2021/11/20 04:48:48;;;;;;;16.80;8.00;;;;;;;6.28;100.00;95480.47;5106486;27;20160;-68
2021/11/20 04:51:15;;;;;;;13.80;7.32;;;;;;;6.27;100.00;95478.88;5108162;27;20049;-68
2021/11/20 04:53:45;;;;;;;19.58;9.95;;;;;;;6.24;100.00;95478.44;5092487;27;20047;-67
2021/11/20 04:56:15;;;;;;;16.33;9.35;;;;;;;6.27;100.00;95471.09;5102086;28;20047;-68
2021/11/20 04:58:44;;;;;;;13.65;8.68;;;;;;;6.24;100.00;95476.66;5102426;28;20050;-67
2021/11/20 05:01:11;;;;;;;16.80;8.80;;;;;;;6.27;100.00;95484.03;5092152;28;20138;-67
2021/11/20 05:03:43;;;;;;;19.42;8.55;;;;;;;6.28;100.00;95464.97;5085957;28;20051;-68
2021/11/20 05:06:11;;;;;;;17.20;8.20;;;;;;;6.26;100.00;95451.38;5103038;27;20067;-68
2021/11/20 05:08:39;;;;;;;15.25;8.73;;;;;;;6.35;100.00;95449.47;5088841;28;20048;-68
2021/11/20 05:11:08;;;;;;;18.52;8.35;;;;;;;6.28;100.00;95449.44;5091886;27;20688;-68
2021/11/20 05:13:43;;;;;;;15.07;8.73;;;;;;;6.35;100.00;95453.84;5089132;27;20061;-68
2021/11/20 05:16:10;;;;;;;16.02;8.98;;;;;;;6.38;100.00;95445.72;5115380;27;20117;-68
2021/11/20 05:18:38;;;;;;;13.75;7.32;;;;;;;6.32;100.00;95450.66;5087453;28;20035;-68
2021/11/20 05:21:10;;;;;;;13.27;7.57;;;;;;;6.35;100.00;95459.81;5083989;28;20465;-68
2021/11/20 05:23:37;;;;;;;11.98;6.70;;;;;;;6.38;100.00;95458.66;5090751;28;20043;-68
2021/11/20 05:26:07;;;;;;;13.25;7.32;;;;;;;6.40;100.00;95456.66;5089954;28;20043;-68
2021/11/20 05:28:36;;;;;;;18.23;7.72;;;;;;;6.35;100.00;95448.66;5080480;28;20048;-68
2021/11/20 05:31:04;;;;;;;14.02;7.53;;;;;;;6.39;100.00;95444.72;5065661;28;20525;-68
2021/11/20 05:33:42;;;;;;;10.73;6.70;;;;;;;6.46;100.00;95461.06;5081640;28;20134;-68
2021/11/20 05:36:13;;;;;;;13.10;6.95;;;;;;;6.49;100.00;95466.66;5080816;28;20052;-67
2021/11/20 05:38:40;;;;;;;12.40;6.38;;;;;;;6.41;100.00;95474.59;5080801;28;20066;-68
2021/11/20 05:41:09;;;;;;;10.40;6.40;;;;;;;6.35;100.00;95454.63;5080884;28;20136;-68
2021/11/20 05:43:43;;;;;;;12.75;6.72;;;;;;;6.49;100.00;95476.22;5066097;28;20134;-68
2021/11/20 05:46:23;;;;;;;12.38;6.50;;;;;;;6.49;100.00;95476.22;5081043;28;20566;-69
2021/11/20 05:48:53;;;;;;;11.20;6.35;;;;;;;6.59;100.00;95481.88;5080268;28;20552;-66
2021/11/20 05:51:22;;;;;;;12.90;6.85;;;;;;;6.57;100.00;95483.88;5080904;28;20040;-66
2021/11/20 05:53:49;;;;;;;14.50;6.05;;;;;;;6.49;100.00;95474.44;5064779;28;20409;-66
2021/11/20 05:56:18;;;;;;;10.10;6.30;;;;;;;6.51;100.00;95489.78;5081142;28;20044;-67
2021/11/20 05:59:07;;;;;;;11.23;6.38;;;;;;;6.57;100.00;95483.88;5080532;28;20044;-67
2021/11/20 06:01:34;;;;;;;16.02;6.40;;;;;;;6.42;100.00;95470.22;5081164;28;20040;-67
2021/11/20 06:04:01;;;;;;;11.18;6.45;;;;;;;6.52;100.00;95486.22;5080428;28;20098;-67
2021/11/20 06:06:28;;;;;;;11.38;6.97;;;;;;;6.54;100.00;95489.41;5080274;28;20064;-66
2021/11/20 06:08:55;;;;;;;11.95;6.78;;;;;;;6.58;100.00;95495.81;5080406;28;20044;-67
2021/11/20 06:11:22;;;;;;;13.88;6.05;;;;;;;6.50;100.00;95498.56;5079974;28;20036;-69
2021/11/20 06:13:49;;;;;;;9.88;6.18;;;;;;;6.52;100.00;95493.97;5081046;28;20044;-69
2021/11/20 06:16:42;;;;;;;11.65;6.55;;;;;;;6.59;100.00;95505.19;5074963;28;20066;-69
2021/11/20 06:19:11;;;;;;;17.33;8.35;;;;;;;6.53;100.00;95500.75;5074191;28;20052;-69
2021/11/20 06:21:39;;;;;;;15.30;7.25;;;;;;;6.63;100.00;95508.97;5078268;28;20243;-68
2021/11/20 06:24:07;;;;;;;14.02;6.80;;;;;;;6.55;100.00;95506.53;5080481;28;20051;-67
2021/11/20 06:26:36;;;;;;;12.93;8.13;;;;;;;6.55;100.00;95511.69;5082019;28;20123;-66
2021/11/20 06:29:04;;;;;;;14.13;6.38;;;;;;;6.50;100.00;95503.72;5094811;28;20054;-66
2021/11/20 06:31:33;;;;;;;22.52;8.20;;;;;;;6.43;100.00;95479.59;5085345;28;20081;-66
2021/11/20 06:34:15;;;;;;;17.95;9.02;;;;;;;6.60;100.00;95508.56;5087225;28;20044;-67
2021/11/20 06:37:01;;;;;;;15.30;7.90;;;;;;;6.54;100.00;95504.94;5101868;28;20058;-66
2021/11/20 06:39:43;;;;;;;13.52;7.38;;;;;;;6.55;100.00;95509.09;5120323;27;20066;-65
2021/11/20 06:42:10;;;;;;;13.88;7.57;;;;;;;6.51;100.00;95513.06;5107487;27;20051;-67
2021/11/20 06:44:37;;;;;;;19.67;8.65;;;;;;;6.55;100.00;95506.53;5085529;28;20032;-66
2021/11/20 06:47:05;;;;;;;16.60;7.75;;;;;;;6.54;100.00;95510.13;5094129;28;20083;-66
2021/11/20 06:49:32;;;;;;;15.48;7.25;;;;;;;6.50;100.00;95503.72;5097322;27;20043;-67
2021/11/20 06:51:59;;;;;;;17.55;7.85;;;;;;;6.50;100.00;95488.19;5092333;28;20040;-66
2021/11/20 06:54:46;;;;;;;12.80;7.65;;;;;;;6.60;100.00;95491.22;5107740;27;20051;-66
2021/11/20 07:00:30;;;;;;;13.73;7.25;;;;;;;6.67;100.00;95467.97;5106817;27;20103;-67
2021/11/20 07:03:42;;;;;;;15.40;7.05;;;;;;;6.71;100.00;95489.91;5092815;27;20055;-67
2021/11/20 07:06:20;;;;;;;11.32;6.75;;;;;;;6.80;100.00;95488.75;5089565;28;20043;-66
2021/11/20 07:08:50;;;;;;;11.85;7.30;;;;;;;6.81;100.00;95481.81;5093116;27;20043;-67
2021/11/20 07:11:18;;;;;;;13.82;7.78;;;;;;;6.76;100.00;95460.88;5105572;28;20036;-67
2021/11/20 07:13:45;;;;;;;13.48;6.60;;;;;;;6.89;99.88;95476.47;5105915;27;20122;-67
2021/11/20 07:16:13;;;;;;;11.68;6.78;;;;;;;6.97;99.19;95489.25;5112825;27;20067;-67
2021/11/20 07:18:43;;;;;;;10.18;5.32;;;;;;;7.00;99.01;95491.44;5084327;28;20048;-67
2021/11/20 07:21:29;;;;;;;10.13;5.38;;;;;;;6.97;99.03;95473.72;5103497;28;20067;-67
2021/11/20 07:24:21;;;;;;;11.70;6.78;;;;;;;7.14;98.82;95487.13;5070164;28;20138;-67
2021/11/20 07:26:50;;;;;;;8.98;6.07;;;;;;;7.17;98.63;95488.56;5086445;28;20058;-68
2021/11/20 07:29:18;;;;;;;13.55;7.15;;;;;;;7.21;98.23;95475.00;5083392;28;20047;-67
2021/11/20 07:32:01;;;;;;;13.32;6.57;;;;;;;7.12;97.92;95465.03;5099596;28;20174;-67
2021/11/20 07:34:30;;;;;;;16.80;6.43;;;;;;;7.23;97.74;95467.84;5098750;28;20847;-67
2021/11/20 07:36:58;;;;;;;9.57;5.80;;;;;;;7.15;96.68;95454.25;5098595;27;20039;-68
2021/11/20 07:39:27;;;;;;;12.75;5.50;;;;;;;7.25;96.79;95454.69;5086399;27;20045;-67
2021/11/20 07:41:54;;;;;;;10.18;5.50;;;;;;;7.33;96.32;95467.50;5081545;27;20483;-67
2021/11/20 07:44:23;;;;;;;11.32;6.55;;;;;;;7.40;96.15;95468.31;5074435;28;20100;-68
2021/11/20 07:46:53;;;;;;;11.13;7.00;;;;;;;7.40;95.74;95473.50;5087816;28;20401;-68
2021/11/20 07:49:24;;;;;;;15.68;7.28;;;;;;;7.55;94.84;95480.31;5084527;28;20043;-68
2021/11/20 07:51:52;;;;;;;19.13;8.35;;;;;;;7.57;94.81;95483.50;5079071;27;20105;-68
2021/11/20 07:54:19;;;;;;;24.20;12.80;;;;;;;7.59;94.26;95481.50;5077331;28;20692;-68
2021/11/20 07:57:05;;;;;;;29.27;12.93;;;;;;;7.61;94.63;95484.69;5106674;27;20080;-68
2021/11/20 07:59:32;;;;;;;14.48;8.98;;;;;;;7.63;94.42;95483.53;5092281;28;20099;-68
2021/11/20 08:02:20;;;;;;;12.65;6.70;;;;;;;7.60;93.95;95486.50;5103908;28;20139;-68
2021/11/20 08:04:47;;;;;;;11.75;7.18;;;;;;;7.58;93.29;95479.91;5088407;28;20124;-68
2021/11/20 08:07:29;;;;;;;13.60;8.60;;;;;;;7.69;93.51;95507.88;5115193;27;20138;-68
2021/11/20 08:10:15;;;;;;;34.03;15.70;;;;;;;7.78;93.41;95511.88;5084200;28;20828;-69
2021/11/20 08:12:44;;;;;;;26.30;12.35;;;;;;;7.74;92.98;95492.53;5085525;28;20585;-68
2021/11/20 08:15:30;;;;;;;19.33;8.85;;;;;;;7.76;92.80;95493.13;5102520;27;20410;-68
2021/11/20 08:18:16;;;;;;;15.32;7.75;;;;;;;7.83;92.32;95478.38;5107446;27;20062;-68
2021/11/20 08:21:03;;;;;;;18.30;8.43;;;;;;;7.92;91.68;95483.34;5101894;27;20043;-68
2021/11/20 08:23:50;;;;;;;14.23;7.40;;;;;;;8.00;91.79;95478.00;5081417;28;20055;-68
2021/11/20 08:26:19;;;;;;;10.80;7.05;;;;;;;8.01;91.56;95470.00;5086708;28;20075;-68
2021/11/20 08:28:46;;;;;;;11.80;6.18;;;;;;;8.07;90.44;95477.97;5097829;27;20059;-68
2021/11/20 08:31:14;;;;;;;8.95;5.07;;;;;;;8.08;90.14;95469.22;5082455;28;20040;-68
2021/11/20 08:33:49;;;;;;;10.70;5.60;;;;;;;8.14;89.57;95474.41;5090931;28;20404;-68
2021/11/20 08:36:28;;;;;;;8.65;5.22;;;;;;;8.12;89.49;95460.03;5084906;27;20039;-68
2021/11/20 08:39:28;;;;;;;9.90;6.20;;;;;;;8.31;88.67;95474.00;5088876;28;20049;-68
2021/11/20 08:41:55;;;;;;;10.50;5.70;;;;;;;8.37;88.15;95462.81;5082906;28;20134;-68
2021/11/20 08:44:23;;;;;;;9.55;5.78;;;;;;;8.40;87.84;95468.38;5117445;27;20052;-68
2021/11/20 08:46:54;;;;;;;10.02;5.10;;;;;;;8.49;87.29;95461.22;5105932;27;20493;-67
2021/11/20 08:49:23;;;;;;;8.80;4.18;;;;;;;8.54;86.50;95468.44;5083710;28;20428;-68
2021/11/20 08:51:52;;;;;;;10.18;5.72;;;;;;;8.66;86.77;95471.19;5092119;27;20564;-69
2021/11/20 08:54:21;;;;;;;18.00;8.00;;;;;;;8.65;86.22;95454.03;5089325;27;20053;-69
2021/11/20 08:56:54;;;;;;;35.22;8.18;;;;;;;8.82;85.54;95475.94;5079294;28;20044;-68
2021/11/20 08:59:27;;;;;;;8.20;5.28;;;;;;;8.77;85.56;95470.59;5081540;28;20572;-68
2021/11/20 09:02:12;;;;;;;8.48;5.25;;;;;;;8.81;85.68;95482.16;5096720;28;20035;-68
2021/11/20 09:04:59;;;;;;;10.65;5.78;;;;;;;8.90;85.37;95478.34;5087907;28;20039;-69
2021/11/20 09:07:54;;;;;;;11.95;6.10;;;;;;;8.84;85.16;95473.97;5088535;28;20138;-69
2021/11/20 09:10:26;;;;;;;10.07;6.35;;;;;;;8.85;84.56;95479.94;5079819;28;20044;-68
2021/11/20 09:13:04;;;;;;;11.15;6.57;;;;;;;8.81;85.82;95469.16;5090176;27;20039;-69
2021/11/20 09:15:47;;;;;;;13.15;5.93;;;;;;;8.81;85.62;95474.38;5087939;28;20523;-69
2021/11/20 09:18:23;;;;;;;9.95;5.55;;;;;;;8.92;85.34;95465.94;5089485;28;20433;-69
2021/11/20 09:20:52;;;;;;;9.20;5.85;;;;;;;8.92;86.17;95459.94;5085012;28;20482;-69
2021/11/20 09:23:46;;;;;;;;;;;;;;;8.99;85.54;95461.50;5083259;28;20639;-68
2021/11/20 09:26:26;;;;;;;9.70;5.32;;;;;;;9.01;85.81;95478.72;5083790;28;19928;-69
2021/11/20 09:28:56;;;;;;;15.48;7.78;;;;;;;9.07;86.05;95451.91;5092478;28;20062;-69
2021/11/20 09:31:27;;;;;;;12.07;6.43;;;;;;;9.05;85.50;95459.09;5088752;27;20050;-69
2021/11/20 09:33:56;;;;;;;13.68;6.82;;;;;;;9.03;86.06;95445.53;5093190;28;20055;-69
2021/11/20 09:36:27;;;;;;;22.15;8.00;;;;;;;9.19;86.08;95455.44;5089582;27;20393;-68
2021/11/20 09:39:00;;;;;;;10.75;6.65;;;;;;;9.26;85.86;95448.41;5101738;28;20040;-69
2021/11/20 09:41:43;;;;;;;17.95;7.53;;;;;;;9.29;85.02;95434.19;5093784;27;20039;-69
2021/11/20 09:44:18;;;;;;;10.88;4.82;;;;;;;9.54;84.72;95436.88;5084734;28;20062;-68
2021/11/20 09:46:49;;;;;;;11.25;5.82;;;;;;;9.75;83.67;95433.94;5085327;28;20048;-69
2021/11/20 09:49:21;;;;;;;12.50;6.13;;;;;;;9.93;83.18;95440.22;5089183;28;20135;-69
2021/11/20 09:51:51;;;;;;;9.63;5.88;;;;;;;9.94;82.30;95436.63;5087768;28;20539;-68
2021/11/20 09:54:26;;;;;;;10.95;6.55;;;;;;;9.90;82.06;95466.66;5083515;28;20055;-69
2021/11/20 09:57:23;;;;;;;17.00;6.78;;;;;;;9.78;83.13;95469.16;5104850;28;20472;-69
2021/11/20 10:00:12;;;;;;;10.10;5.32;;;;;;;9.64;83.56;95447.63;5104066;28;20043;-69
2021/11/20 10:02:40;;;;;;;8.98;4.70;;;;;;;9.48;84.12;95437.72;5091793;28;20099;-69
2021/11/20 10:05:06;;;;;;;7.82;3.75;;;;;;;9.34;84.48;95453.38;5107649;28;20049;-69
2021/11/20 10:07:38;;;;;;;9.40;5.75;;;;;;;9.64;84.46;95442.41;5106267;28;20043;-69
2021/11/20 10:10:14;;;;;;;15.25;5.82;;;;;;;10.19;82.73;95457.47;5089536;28;20059;-69
2021/11/20 10:13:11;;;;;;;7.63;5.28;;;;;;;10.17;81.94;95430.81;5090377;28;20047;-69
2021/11/20 10:16:12;;;;;;;8.63;5.45;;;;;;;10.32;81.42;95443.56;5110739;27;20043;-69
2021/11/20 10:19:08;;;;;;;21.73;5.38;;;;;;;10.30;81.44;95422.91;5105950;28;20043;-70
2021/11/20 10:21:59;;;;;;;9.43;5.68;;;;;;;10.21;82.49;95425.97;5106579;28;20054;-69
2021/11/20 10:24:56;;;;;;;7.78;4.22;;;;;;;10.34;82.63;95420.72;5068429;28;20055;-69
2021/11/20 10:27:35;;;;;;;8.60;4.28;;;;;;;10.07;83.37;95415.69;5066101;27;20081;-69
2021/11/20 10:30:23;;;;;;;8.05;5.05;;;;;;;10.05;83.23;95422.91;5111807;27;20051;-69
2021/11/20 10:33:07;;;;;;;7.82;4.40;;;;;;;10.20;83.17;95421.81;5107050;28;20040;-68
2021/11/20 10:35:40;;;;;;;11.77;5.70;;;;;;;10.36;82.51;95418.69;5106155;28;20043;-69
2021/11/20 10:38:33;;;;;;;11.90;5.35;;;;;;;10.57;81.40;95419.28;5108364;27;20047;-69
2021/11/20 10:41:10;;;;;;;10.80;5.30;;;;;;;10.78;81.49;95411.03;5089812;28;20054;-69
2021/11/20 10:43:44;;;;;;;14.88;5.93;;;;;;;11.41;78.40;95398.63;5084455;28;20047;-69
2021/11/20 10:46:11;;;;;;;;;;;;;;;11.59;77.01;95390.75;5117509;27;20415;-69
2021/11/20 10:48:50;;;;;;;11.35;5.68;;;;;;;11.39;77.21;95385.81;5108239;27;19923;-70
2021/11/20 10:51:33;;;;;;;18.60;7.45;;;;;;;11.51;77.22;95398.91;5107063;27;20048;-69
2021/11/20 10:54:18;;;;;;;9.60;5.55;;;;;;;11.45;77.29;95405.00;5108992;27;20043;-70
2021/11/20 10:57:05;;;;;;;7.20;4.47;;;;;;;11.38;77.26;95435.59;5105601;28;20040;-69
2021/11/20 10:59:49;;;;;;;12.45;4.55;;;;;;;10.88;79.22;95416.53;5090693;28;20051;-69
2021/11/20 11:02:25;;;;;;;;;;;;;;;10.76;80.50;95423.47;5110650;27;20055;-69
2021/11/20 11:05:17;;;;;;;9.05;5.53;;;;;;;10.66;80.75;95420.56;5089597;27;19923;-69
2021/11/20 11:08:09;;;;;;;13.60;4.25;;;;;;;10.88;80.41;95407.94;5094431;27;20043;-69
2021/11/20 11:10:48;;;;;;;10.23;5.38;;;;;;;11.07;80.30;95403.47;5110140;27;20039;-69
2021/11/20 11:13:47;;;;;;;10.70;5.88;;;;;;;11.15;78.29;95399.81;5092775;27;20527;-69
2021/11/20 11:16:40;;;;;;;13.13;7.18;;;;;;;11.31;79.02;95408.78;5103046;27;20044;-69
2021/11/20 11:19:24;;;;;;;7.70;5.07;;;;;;;11.42;78.21;95402.84;5103346;27;20086;-69
2021/11/20 11:22:17;;;;;;;7.82;5.15;;;;;;;11.17;78.61;95403.75;5103687;27;20527;-69
2021/11/20 11:24:47;;;;;;;11.90;6.45;;;;;;;10.95;79.87;95415.66;5097011;28;20043;-69
2021/11/20 11:27:19;;;;;;;11.25;6.32;;;;;;;10.98;80.23;95410.00;5111415;27;20051;-68
2021/11/20 11:29:59;;;;;;;8.73;4.72;;;;;;;10.90;79.48;95409.28;5114970;27;20043;-69
2021/11/20 11:32:29;;;;;;;10.20;6.40;;;;;;;10.44;81.99;95426.22;5090918;27;20053;-68
2021/11/20 11:35:46;;;;;;;13.82;7.25;;;;;;;9.85;84.04;95422.25;5098004;27;20056;-69
2021/11/20 11:38:27;;;;;;;15.10;7.70;;;;;;;9.57;86.25;95420.84;5088986;28;20626;-68
2021/11/20 11:41:08;;;;;;;12.82;6.82;;;;;;;9.50;86.81;95409.69;5104886;28;20428;-69
2021/11/20 11:43:50;;;;;;;14.88;6.18;;;;;;;9.51;87.24;95416.50;5103030;28;20070;-68
2021/11/20 11:46:29;;;;;;;21.90;9.18;;;;;;;9.43;87.48;95414.13;5107354;27;20043;-69
2021/11/20 11:49:15;;;;;;;14.35;7.43;;;;;;;9.42;87.99;95423.75;5114596;27;20082;-68
2021/11/20 11:52:11;;;;;;;14.63;8.80;;;;;;;9.41;88.03;95416.16;5099840;27;20032;-71
2021/11/20 11:54:45;;;;;;;13.73;7.68;;;;;;;9.42;87.74;95422.94;5102392;27;20039;-68
2021/11/20 11:57:12;;;;;;;12.88;7.43;;;;;;;9.61;87.51;95414.22;5099228;28;20039;-68
2021/11/20 11:59:56;;;;;;;13.35;8.15;;;;;;;9.90;85.75;95414.63;5100418;27;20059;-67
2021/11/20 12:02:38;;;;;;;11.65;6.88;;;;;;;10.27;84.47;95405.09;5076143;28;20048;-68
2021/11/20 12:05:33;;;;;;;15.80;9.18;;;;;;;10.52;83.16;95402.50;5093120;27;20039;-73
2021/11/20 12:08:31;;;;;;;13.63;8.13;;;;;;;10.46;83.37;95392.94;5092976;27;20197;-72